createdAt,value
2019-05-22T00:02:35.039Z,2.90
2019-05-22T00:05:19.014Z,3.97
2019-05-22T00:07:48.885Z,3.33
2019-05-22T00:10:26.432Z,3.33
2019-05-22T00:12:58.943Z,2.50
2019-05-22T00:15:30.397Z,2.67
2019-05-22T00:18:02.268Z,4.13
2019-05-22T00:20:31.954Z,5.33
2019-05-22T00:23:05.767Z,5.43
2019-05-22T00:25:37.930Z,5.20
2019-05-22T00:28:09.130Z,7.60
2019-05-22T00:30:39.978Z,4.73
2019-05-22T00:33:09.808Z,6.67
2019-05-22T00:35:39.991Z,7.53
2019-05-22T00:38:09.986Z,5.20
2019-05-22T00:40:47.749Z,7.17
2019-05-22T00:43:18.696Z,7.20
2019-05-22T00:45:50.763Z,5.63
2019-05-22T00:48:23.923Z,5.90
2019-05-22T00:51:10.286Z,9.40
2019-05-22T00:54:01.350Z,7.00
2019-05-22T00:56:45.321Z,6.57
2019-05-22T00:59:27.969Z,6.63
2019-05-22T01:02:02.200Z,9.40
2019-05-22T01:04:37.927Z,8.53
2019-05-22T01:07:17.922Z,7.53
2019-05-22T01:09:49.294Z,6.60
2019-05-22T01:12:26.580Z,7.23
2019-05-22T01:14:57.822Z,6.43
2019-05-22T01:17:30.153Z,9.47
2019-05-22T01:20:01.453Z,6.23
2019-05-22T01:22:32.493Z,4.97
2019-05-22T01:25:03.226Z,6.93
2019-05-22T01:27:32.818Z,6.70
2019-05-22T01:30:03.876Z,5.30
2019-05-22T01:32:43.090Z,6.37
2019-05-22T01:35:14.027Z,6.77
2019-05-22T01:37:45.096Z,6.03
2019-05-22T01:40:23.624Z,5.97
2019-05-22T01:42:56.167Z,5.93
2019-05-22T01:45:26.621Z,6.07
2019-05-22T01:48:05.742Z,5.17
2019-05-22T01:50:51.265Z,7.70
2019-05-22T01:53:24.087Z,7.20
2019-05-22T01:55:59.576Z,4.90
2019-05-22T01:58:31.544Z,6.90
2019-05-22T02:01:03.335Z,6.90
2019-05-22T02:03:34.421Z,6.07
2019-05-22T02:06:06.249Z,6.90
2019-05-22T02:08:41.041Z,5.73
2019-05-22T02:11:13.927Z,6.57
2019-05-22T02:13:48.731Z,5.83
2019-05-22T02:16:18.753Z,5.33
2019-05-22T02:18:50.779Z,6.90
2019-05-22T02:21:21.939Z,11.17
2019-05-22T02:23:52.674Z,7.30
2019-05-22T02:26:22.200Z,5.87
2019-05-22T02:28:55.029Z,6.70
2019-05-22T02:31:28.805Z,6.03
2019-05-22T02:34:03.116Z,6.93
2019-05-22T02:36:34.919Z,6.00
2019-05-22T02:39:10.481Z,7.43
2019-05-22T02:41:46.613Z,7.07
2019-05-22T02:44:16.479Z,5.30
2019-05-22T02:46:46.308Z,8.27
2019-05-22T02:49:17.499Z,6.00
2019-05-22T02:51:48.705Z,6.00
2019-05-22T02:54:18.423Z,7.23
2019-05-22T02:56:48.139Z,7.93
2019-05-22T02:59:18.114Z,5.80
2019-05-22T03:01:48.382Z,9.33
2019-05-22T03:04:19.615Z,5.07
2019-05-22T03:06:51.262Z,9.90
2019-05-22T03:09:28.937Z,8.47
2019-05-22T03:12:03.926Z,6.73
2019-05-22T03:14:35.110Z,7.83
2019-05-22T03:17:07.769Z,7.50
2019-05-22T03:19:45.435Z,5.37
2019-05-22T03:22:28.499Z,6.40
2019-05-22T03:25:02.073Z,6.30
2019-05-22T03:27:44.071Z,7.27
2019-05-22T03:30:21.498Z,8.43
2019-05-22T03:32:52.185Z,7.10
2019-05-22T03:35:23.948Z,5.83
2019-05-22T03:37:53.876Z,7.73
2019-05-22T03:40:25.467Z,5.10
2019-05-22T03:42:55.358Z,5.80
2019-05-22T03:45:25.434Z,6.73
2019-05-22T03:47:57.021Z,5.47
2019-05-22T03:50:28.626Z,7.00
2019-05-22T03:53:00.676Z,5.23
2019-05-22T03:55:30.054Z,5.60
2019-05-22T03:57:59.709Z,7.70
2019-05-22T04:00:31.044Z,9.23
2019-05-22T04:03:01.324Z,7.37
2019-05-22T04:05:30.831Z,7.00
2019-05-22T04:08:03.876Z,8.50
2019-05-22T04:10:41.173Z,5.50
2019-05-22T04:13:10.809Z,7.30
2019-05-22T04:15:42.236Z,7.03
2019-05-22T04:18:16.536Z,5.97
2019-05-22T04:20:46.260Z,6.80
2019-05-22T04:23:15.646Z,10.77
2019-05-22T04:25:45.430Z,9.40
2019-05-22T04:28:15.259Z,7.00
2019-05-22T04:30:46.556Z,7.63
2019-05-22T04:33:16.093Z,9.47
2019-05-22T04:35:45.938Z,6.90
2019-05-22T04:38:17.228Z,7.07
2019-05-22T04:40:58.060Z,7.37
2019-05-22T04:43:32.653Z,8.80
2019-05-22T04:46:04.566Z,8.53
2019-05-22T04:48:36.442Z,9.20
2019-05-22T04:51:27.301Z,9.33
2019-05-22T04:53:57.395Z,8.47
2019-05-22T04:56:28.508Z,9.07
2019-05-22T04:59:00.989Z,11.57
2019-05-22T05:01:31.012Z,8.80
2019-05-22T05:04:01.519Z,11.47
2019-05-22T05:06:33.354Z,10.10
2019-05-22T05:09:10.583Z,7.00
2019-05-22T05:11:40.475Z,6.03
2019-05-22T05:14:10.344Z,8.03
2019-05-22T05:16:39.963Z,7.63
2019-05-22T05:19:09.752Z,7.07
2019-05-22T05:21:40.399Z,9.07
2019-05-22T05:24:09.825Z,10.50
2019-05-22T05:26:39.313Z,7.83
2019-05-22T05:29:27.885Z,8.60
2019-05-22T05:31:59.017Z,5.77
2019-05-22T05:34:48.627Z,9.07
2019-05-22T05:37:20.716Z,6.30
2019-05-22T05:40:39.442Z,10.30
2019-05-22T05:43:15.377Z,7.87
2019-05-22T05:45:47.549Z,5.93
2019-05-22T05:48:20.908Z,4.63
2019-05-22T05:51:33.319Z,7.03
2019-05-22T05:54:08.748Z,4.90
2019-05-22T05:56:40.832Z,4.80
2019-05-22T05:59:14.276Z,5.17
2019-05-22T06:01:53.506Z,6.03
2019-05-22T06:04:39.140Z,6.37
2019-05-22T06:07:25.349Z,5.63
2019-05-22T06:10:25.393Z,6.90
2019-05-22T06:12:54.819Z,6.07
2019-05-22T06:15:45.947Z,6.07
2019-05-22T06:18:48.512Z,7.40
2019-05-22T06:21:19.254Z,5.10
2019-05-22T06:24:25.525Z,5.93
2019-05-22T06:27:03.067Z,6.67
2019-05-22T06:29:42.770Z,8.53
2019-05-22T06:32:55.660Z,10.27
2019-05-22T06:35:26.893Z,5.50
2019-05-22T06:38:35.168Z,5.43
2019-05-22T06:41:07.142Z,5.10
2019-05-22T06:44:16.893Z,5.43
2019-05-22T06:46:48.024Z,4.47
2019-05-22T06:49:44.918Z,8.87
2019-05-22T06:52:15.249Z,6.27
2019-05-22T06:54:45.063Z,6.13
2019-05-22T06:57:16.007Z,5.30
2019-05-22T06:59:46.930Z,4.80
2019-05-22T07:02:19.454Z,7.47
2019-05-22T07:04:49.840Z,7.47
2019-05-22T07:07:20.028Z,7.60
2019-05-22T07:09:50.676Z,5.67
2019-05-22T07:12:23.260Z,6.67
2019-05-22T07:16:02.199Z,12.73
2019-05-22T07:18:32.009Z,9.13
2019-05-22T07:21:01.982Z,10.67
2019-05-22T07:23:33.013Z,8.00
2019-05-22T07:26:03.609Z,9.10
2019-05-22T07:28:33.616Z,8.70
2019-05-22T07:31:04.436Z,10.97
2019-05-22T07:33:35.312Z,8.60
2019-05-22T07:36:10.045Z,7.43
2019-05-22T07:38:36.418Z,8.23
2019-05-22T07:41:07.766Z,6.73
2019-05-22T07:43:41.195Z,7.50
2019-05-22T07:46:08.713Z,7.73
2019-05-22T07:48:38.659Z,10.27
2019-05-22T07:51:08.795Z,7.63
2019-05-22T07:53:38.108Z,5.97
2019-05-22T07:56:11.550Z,8.10
2019-05-22T07:58:41.550Z,6.00
2019-05-22T08:01:11.004Z,5.20
2019-05-22T08:03:43.734Z,8.63
2019-05-22T08:06:13.825Z,8.80
2019-05-22T08:08:45.410Z,7.43
2019-05-22T08:11:16.088Z,4.87
2019-05-22T08:13:46.319Z,4.40
2019-05-22T08:16:17.014Z,5.17
2019-05-22T08:18:46.611Z,3.30
2019-05-22T08:21:16.034Z,4.07
2019-05-22T08:23:46.348Z,5.43
2019-05-22T08:26:19.319Z,3.83
2019-05-22T08:28:49.378Z,5.07
2019-05-22T08:31:20.700Z,6.07
2019-05-22T08:33:50.254Z,3.60
2019-05-22T08:36:19.645Z,4.03
2019-05-22T08:38:50.162Z,7.03
2019-05-22T08:41:24.930Z,2.73
2019-05-22T08:44:14.716Z,4.90
2019-05-22T08:46:25.970Z,2.47
2019-05-22T08:48:56.368Z,2.33
2019-05-22T08:51:25.885Z,3.60
2019-05-22T08:53:55.609Z,1.73
2019-05-22T08:56:27.040Z,1.83
2019-05-22T08:58:56.405Z,1.30
2019-05-22T09:01:26.036Z,2.27
2019-05-22T09:03:56.088Z,2.43
2019-05-22T09:06:25.482Z,2.63
2019-05-22T09:08:54.929Z,2.17
2019-05-22T09:11:24.320Z,3.50
2019-05-22T09:13:53.703Z,3.53
2019-05-22T09:16:23.959Z,2.93
2019-05-22T09:18:54.379Z,3.23
2019-05-22T09:21:24.266Z,3.93
2019-05-22T09:23:55.173Z,2.60
2019-05-22T09:26:28.680Z,2.40
2019-05-22T09:28:58.228Z,3.33
2019-05-22T09:31:27.672Z,2.40
2019-05-22T09:33:57.032Z,3.47
2019-05-22T09:36:27.353Z,2.63
2019-05-22T09:38:57.049Z,4.57
2019-05-22T09:41:26.547Z,5.13
2019-05-22T09:43:55.861Z,4.85
2019-05-22T09:46:25.826Z,3.30
2019-05-22T09:48:56.769Z,2.73
2019-05-22T09:51:26.209Z,2.73
2019-05-22T09:53:56.957Z,3.20
2019-05-22T09:56:28.830Z,1.73
2019-05-22T09:58:58.813Z,1.97
2019-05-22T10:01:28.469Z,1.50
2019-05-22T10:03:58.044Z,1.40
2019-05-22T10:06:27.421Z,2.03
2019-05-22T10:08:56.957Z,3.40
2019-05-22T10:11:26.331Z,1.40
2019-05-22T10:13:55.727Z,2.33
2019-05-22T10:16:25.331Z,3.33
2019-05-22T10:18:55.083Z,1.23
2019-05-22T10:21:24.575Z,2.30
2019-05-22T10:23:53.927Z,1.47
2019-05-22T10:26:23.705Z,2.50
2019-05-22T10:28:53.627Z,2.07
2019-05-22T10:31:21.964Z,1.77
2019-05-22T10:33:52.218Z,1.00
2019-05-22T10:36:22.000Z,1.32
2019-05-22T10:38:53.754Z,2.25
2019-05-22T10:41:23.251Z,1.42
2019-05-22T10:43:52.701Z,1.20
2019-05-22T10:46:23.250Z,1.80
2019-05-22T10:48:53.451Z,2.93
2019-05-22T10:51:25.122Z,1.42
2019-05-22T10:53:54.466Z,3.15
2019-05-22T10:56:24.199Z,5.55
2019-05-22T10:58:54.301Z,2.92
2019-05-22T11:01:24.109Z,2.02
2019-05-22T11:03:53.531Z,1.77
2019-05-22T11:06:23.637Z,1.67
2019-05-22T11:08:55.950Z,1.12
2019-05-22T11:11:25.527Z,2.50
2019-05-22T11:14:01.299Z,1.07
2019-05-22T11:16:27.086Z,1.00
2019-05-22T11:18:57.139Z,2.55
2019-05-22T11:21:26.787Z,1.52
2019-05-22T11:23:56.250Z,1.12
2019-05-22T11:26:25.719Z,1.40
2019-05-22T11:28:56.009Z,1.77
2019-05-22T11:31:26.375Z,2.02
2019-05-22T11:33:55.722Z,2.55
2019-05-22T11:36:25.818Z,1.47
2019-05-22T11:38:55.727Z,1.20
2019-05-22T11:41:26.492Z,0.80
2019-05-22T11:43:55.926Z,2.15
2019-05-22T11:49:55.555Z,0.95
2019-05-22T11:52:27.732Z,2.25
2019-05-22T11:54:57.210Z,1.75
2019-05-22T11:57:28.791Z,1.35
2019-05-22T11:59:58.764Z,1.42
2019-05-22T12:02:28.683Z,1.55
2019-05-22T12:04:58.288Z,2.17
2019-05-22T12:07:27.642Z,1.17
2019-05-22T12:09:57.220Z,2.72
2019-05-22T12:12:26.673Z,2.65
2019-05-22T12:14:56.152Z,1.70
2019-05-22T12:17:37.330Z,2.52
2019-05-22T12:19:57.389Z,1.00
2019-05-22T12:22:27.137Z,2.67
2019-05-22T12:24:56.965Z,0.85
2019-05-22T12:27:26.455Z,2.25
2019-05-22T12:29:56.050Z,0.70
2019-05-22T12:32:25.670Z,0.60
2019-05-22T12:34:55.143Z,0.88
2019-05-22T12:37:26.987Z,1.55
2019-05-22T12:39:58.844Z,2.33
2019-05-22T12:45:57.255Z,2.75
2019-05-22T12:48:27.878Z,3.92
2019-05-22T12:50:58.122Z,2.20
2019-05-22T12:53:28.380Z,2.80
2019-05-22T12:55:59.738Z,2.12
2019-05-22T12:58:30.480Z,1.20
2019-05-22T13:01:00.067Z,1.37
2019-05-22T13:03:30.430Z,1.40
2019-05-22T13:06:00.170Z,0.98
2019-05-22T13:08:30.914Z,2.10
2019-05-22T13:11:00.471Z,1.50
2019-05-22T13:13:30.129Z,1.07
2019-05-22T13:16:00.511Z,1.65
2019-05-22T13:18:31.249Z,1.52
2019-05-22T13:21:03.233Z,3.27
2019-05-22T13:23:38.275Z,0.95
2019-05-22T13:26:09.445Z,1.92
2019-05-22T13:28:42.078Z,1.07
2019-05-22T13:31:11.789Z,1.85
2019-05-22T13:33:43.221Z,1.20
2019-05-22T13:36:14.385Z,1.40
2019-05-22T13:38:44.070Z,0.88
2019-05-22T13:41:17.440Z,6.10
2019-05-22T13:43:48.158Z,1.22
2019-05-22T13:46:17.835Z,2.52
2019-05-22T13:48:49.580Z,1.00
2019-05-22T13:51:20.230Z,0.50
2019-05-22T13:53:49.803Z,1.75
2019-05-22T13:56:19.736Z,1.98
2019-05-22T13:58:49.397Z,2.30
2019-05-22T14:01:20.553Z,1.05
2019-05-22T14:03:50.195Z,1.20
2019-05-22T14:06:20.316Z,2.10
2019-05-22T14:08:49.977Z,1.00
2019-05-22T14:11:19.347Z,1.82
2019-05-22T14:13:49.514Z,2.00
2019-05-22T14:16:19.813Z,1.42
2019-05-22T14:18:49.153Z,1.00
2019-05-22T14:21:18.684Z,1.42
2019-05-22T14:23:48.030Z,1.57
2019-05-22T14:26:17.594Z,1.30
2019-05-22T14:28:48.039Z,1.37
2019-05-22T14:31:18.114Z,2.80
2019-05-22T14:33:47.685Z,1.47
2019-05-22T14:36:17.345Z,1.37
2019-05-22T14:38:46.869Z,1.90
2019-05-22T14:41:17.301Z,1.10
2019-05-22T14:43:46.664Z,2.58
2019-05-22T14:46:16.042Z,0.80
2019-05-22T14:48:45.404Z,0.60
2019-05-22T14:51:16.548Z,1.70
2019-05-22T14:53:47.687Z,2.00
2019-05-22T14:56:17.881Z,2.00
2019-05-22T14:58:48.053Z,0.72
2019-05-22T15:01:18.134Z,1.87
2019-05-22T15:03:47.477Z,1.00
2019-05-22T15:06:17.667Z,0.70
2019-05-22T15:08:47.182Z,2.33
2019-05-22T15:11:17.905Z,2.80
2019-05-22T15:13:47.794Z,1.32
2019-05-22T15:16:17.586Z,0.90
2019-05-22T15:18:47.118Z,0.80
2019-05-22T15:21:18.382Z,0.78
2019-05-22T15:23:48.915Z,3.52
2019-05-22T15:26:18.606Z,4.37
2019-05-22T15:28:47.998Z,2.60
2019-05-22T15:31:17.875Z,0.95
2019-05-22T15:33:47.335Z,3.45
2019-05-22T15:36:19.370Z,2.40
2019-05-22T15:38:49.877Z,1.20
2019-05-22T15:41:20.636Z,2.67
2019-05-22T15:43:53.499Z,1.37
2019-05-22T15:46:25.505Z,2.67
2019-05-22T15:48:56.154Z,1.22
2019-05-22T15:51:28.614Z,2.35
2019-05-22T15:54:01.733Z,1.65
2019-05-22T15:56:35.284Z,2.58
2019-05-22T15:59:07.414Z,2.72
2019-05-22T16:01:38.291Z,2.50
2019-05-22T16:04:11.028Z,1.80
2019-05-22T16:06:41.076Z,2.77
2019-05-22T16:09:15.347Z,1.55
2019-05-22T16:11:46.967Z,1.65
2019-05-22T16:14:17.391Z,1.30
2019-05-22T16:16:50.430Z,4.30
2019-05-22T16:19:21.909Z,2.20
2019-05-22T16:21:54.236Z,5.73
2019-05-22T16:24:23.732Z,5.83
2019-05-22T16:26:53.623Z,3.37
2019-05-22T16:29:24.553Z,5.43
2019-05-22T16:31:57.098Z,2.80
2019-05-22T16:34:28.519Z,2.67
2019-05-22T16:36:58.369Z,5.33
2019-05-22T16:39:28.236Z,2.87
2019-05-22T16:41:58.284Z,2.87
2019-05-22T16:44:28.892Z,1.83
2019-05-22T16:46:58.873Z,1.47
2019-05-22T16:49:28.704Z,1.33
2019-05-22T16:52:02.343Z,3.33
2019-05-22T16:54:33.460Z,1.70
2019-05-22T16:57:03.955Z,3.23
2019-05-22T16:59:37.251Z,2.87
2019-05-22T17:02:07.644Z,2.17
2019-05-22T17:04:37.188Z,2.07
2019-05-22T17:07:06.855Z,2.30
2019-05-22T17:09:37.731Z,2.50
2019-05-22T17:12:09.846Z,1.83
2019-05-22T17:14:39.206Z,3.33
2019-05-22T17:17:09.821Z,2.67
2019-05-22T17:19:39.780Z,2.37
2019-05-22T17:22:09.561Z,3.60
2019-05-22T17:24:39.717Z,4.30
2019-05-22T17:27:10.462Z,2.17
2019-05-22T17:29:39.993Z,3.83
2019-05-22T17:32:13.129Z,3.97
2019-05-22T17:34:43.194Z,3.33
2019-05-22T17:37:15.885Z,1.90
2019-05-22T17:39:48.573Z,4.90
2019-05-22T17:42:23.462Z,2.33
2019-05-22T17:44:54.067Z,3.67
2019-05-22T17:47:26.305Z,3.57
2019-05-22T17:49:56.948Z,2.83
2019-05-22T17:52:27.816Z,4.93
2019-05-22T17:54:57.662Z,6.53
2019-05-22T17:57:28.182Z,3.57
2019-05-22T17:59:57.951Z,5.67
2019-05-22T18:02:32.032Z,6.67
2019-05-22T18:05:01.939Z,5.23
2019-05-22T18:07:32.529Z,8.47
2019-05-22T18:10:02.671Z,5.73
2019-05-22T18:12:32.361Z,8.20
2019-05-22T18:15:02.359Z,8.13
2019-05-22T18:17:31.902Z,10.23
2019-05-22T18:20:01.676Z,7.90
2019-05-22T18:22:31.247Z,12.20
2019-05-22T18:25:01.411Z,9.43
2019-05-22T18:27:31.787Z,5.87
2019-05-22T18:30:01.463Z,4.57
2019-05-22T18:32:32.477Z,2.93
2019-05-22T18:35:04.346Z,4.33
2019-05-22T18:37:36.030Z,5.10
2019-05-22T18:40:06.041Z,2.13
2019-05-22T18:42:35.762Z,3.03
2019-05-22T18:45:05.376Z,1.27
2019-05-22T18:47:34.925Z,1.20
2019-05-22T18:50:04.646Z,1.30
2019-05-22T18:52:41.061Z,1.50
2019-05-22T18:55:05.683Z,1.63
2019-05-22T18:57:36.060Z,1.50
2019-05-22T19:00:06.261Z,2.80
2019-05-22T19:02:36.186Z,1.10
2019-05-22T19:05:05.885Z,2.60
2019-05-22T19:07:36.089Z,3.30
2019-05-22T19:10:05.776Z,2.73
2019-05-22T19:12:37.560Z,6.53
2019-05-22T19:15:06.996Z,3.57
2019-05-22T19:17:36.515Z,2.50
2019-05-22T19:20:09.700Z,8.60
2019-05-22T19:22:39.804Z,4.47
2019-05-22T19:25:09.714Z,4.07
2019-05-22T19:27:39.312Z,4.07
2019-05-22T19:30:11.878Z,4.60
2019-05-22T19:32:41.332Z,3.00
2019-05-22T19:35:11.109Z,5.03
2019-05-22T19:37:47.106Z,4.87
2019-05-22T19:40:17.687Z,20.47
2019-05-22T19:42:47.595Z,8.73
2019-05-22T19:45:17.867Z,5.10
2019-05-22T19:47:54.526Z,5.27
2019-05-22T19:50:25.420Z,5.77
2019-05-22T19:53:15.706Z,12.53
2019-05-22T19:55:39.973Z,6.63
2019-05-22T19:58:10.712Z,3.97
2019-05-22T20:00:40.717Z,3.97
2019-05-22T20:03:10.491Z,4.93
2019-05-22T20:05:40.100Z,4.67
2019-05-22T20:08:10.305Z,3.37
2019-05-22T20:10:40.080Z,2.70
2019-05-22T20:13:12.211Z,7.63
2019-05-22T20:15:42.504Z,4.00
2019-05-22T20:18:16.602Z,5.30
2019-05-22T20:20:47.041Z,4.87
2019-05-22T20:23:17.579Z,3.50
2019-05-22T20:25:46.996Z,6.40
2019-05-22T20:28:16.848Z,5.10
2019-05-22T20:30:46.769Z,5.30
2019-05-22T20:33:16.349Z,5.33
2019-05-22T20:35:45.980Z,7.67
2019-05-22T20:38:16.285Z,6.50
2019-05-22T20:40:46.187Z,6.93
2019-05-22T20:43:16.589Z,6.50
2019-05-22T20:45:46.435Z,4.57
2019-05-22T20:48:24.682Z,4.20
2019-05-22T20:50:56.117Z,4.87
2019-05-22T20:53:27.398Z,5.20
2019-05-22T20:55:57.011Z,6.50
2019-05-22T20:58:28.620Z,5.60
2019-05-22T21:00:58.303Z,5.43
2019-05-22T21:03:28.095Z,6.90
2019-05-22T21:05:58.554Z,4.87
2019-05-22T21:08:30.881Z,4.17
2019-05-22T21:11:03.094Z,5.80
2019-05-22T21:13:32.716Z,4.70
2019-05-22T21:16:03.816Z,5.30
2019-05-22T21:18:41.261Z,5.63
2019-05-22T21:21:12.434Z,6.10
2019-05-22T21:23:42.683Z,4.97
2019-05-22T21:26:12.700Z,7.17
2019-05-22T21:28:43.169Z,4.83
2019-05-22T21:31:20.256Z,3.00
2019-05-22T21:33:50.299Z,3.40
2019-05-22T21:36:21.017Z,3.23
2019-05-22T21:38:51.527Z,4.97
2019-05-22T21:41:23.169Z,4.33
2019-05-22T21:43:54.219Z,3.90
2019-05-22T21:46:23.884Z,5.63
2019-05-22T21:48:55.995Z,4.57
2019-05-22T21:51:25.472Z,4.87
2019-05-22T21:53:55.751Z,5.23
2019-05-22T21:56:26.078Z,5.20
2019-05-22T21:58:55.931Z,3.20
2019-05-22T22:01:31.175Z,3.53
2019-05-22T22:04:11.809Z,2.80
2019-05-22T22:06:42.134Z,3.67
2019-05-22T22:09:12.096Z,3.33
2019-05-22T22:11:41.622Z,4.63
2019-05-22T22:14:11.538Z,3.07
2019-05-22T22:16:41.241Z,4.33
2019-05-22T22:19:11.720Z,3.90
2019-05-22T22:21:41.702Z,3.20
2019-05-22T22:24:11.792Z,5.10
2019-05-22T22:26:41.399Z,4.30
2019-05-22T22:29:10.819Z,3.20
2019-05-22T22:31:41.063Z,5.77
2019-05-22T22:34:22.201Z,3.37
2019-05-22T22:36:51.709Z,3.60
2019-05-22T22:39:23.374Z,4.10
2019-05-22T22:41:53.511Z,4.50
2019-05-22T22:44:23.223Z,6.37
2019-05-22T22:47:01.363Z,4.33
2019-05-22T22:49:30.758Z,2.90
2019-05-22T22:52:01.111Z,3.27
2019-05-22T22:54:31.773Z,2.60
2019-05-22T22:57:02.415Z,4.53
2019-05-22T22:59:32.057Z,2.63
2019-05-22T23:02:04.352Z,3.77
2019-05-22T23:04:34.394Z,4.03
2019-05-22T23:07:07.948Z,4.80
2019-05-22T23:09:39.306Z,4.00
2019-05-22T23:12:09.877Z,4.80
2019-05-22T23:14:42.559Z,2.40
2019-05-22T23:17:12.924Z,2.70
2019-05-22T23:19:44.515Z,2.67
2019-05-22T23:22:28.692Z,2.60
2019-05-22T23:24:59.562Z,2.80
2019-05-22T23:27:31.621Z,2.70
2019-05-22T23:30:01.181Z,7.83
2019-05-22T23:32:31.062Z,3.77
2019-05-22T23:35:01.314Z,2.57
2019-05-22T23:37:31.675Z,2.90
2019-05-22T23:40:01.653Z,4.50
2019-05-22T23:42:35.135Z,3.40
2019-05-22T23:45:08.155Z,2.90
2019-05-22T23:47:52.462Z,3.07
2019-05-22T23:50:23.229Z,2.33
2019-05-22T23:52:52.600Z,2.10
2019-05-22T23:55:23.557Z,1.90
2019-05-22T23:57:53.373Z,3.33
